createdAt,value
2023-04-29T00:00:03.623Z,15.60
2023-04-29T00:02:36.255Z,19.00
2023-04-29T00:05:08.931Z,19.10
2023-04-29T00:07:40.630Z,18.30
2023-04-29T00:10:15.045Z,17.50
2023-04-29T00:12:46.735Z,17.50
2023-04-29T00:15:18.385Z,16.90
2023-04-29T00:17:51.142Z,16.30
2023-04-29T00:20:23.383Z,15.20
2023-04-29T00:22:55.422Z,18.60
2023-04-29T00:25:27.236Z,14.50
2023-04-29T00:28:02.203Z,17.50
2023-04-29T00:30:35.134Z,15.50
2023-04-29T00:33:06.763Z,16.30
2023-04-29T00:35:39.150Z,15.50
2023-04-29T00:38:12.321Z,19.70
2023-04-29T00:40:45.236Z,18.80
2023-04-29T00:43:17.097Z,15.20
2023-04-29T00:45:48.626Z,16.70
2023-04-29T00:48:20.942Z,17.60
2023-04-29T00:50:53.856Z,16.50
2023-04-29T00:53:25.521Z,15.60
2023-04-29T00:55:57.666Z,20.00
2023-04-29T00:58:33.704Z,16.90
2023-04-29T01:01:06.703Z,20.90
2023-04-29T01:03:38.528Z,20.60
2023-04-29T01:06:19.457Z,16.00
2023-04-29T01:09:04.498Z,17.40
2023-04-29T01:11:49.763Z,14.60
2023-04-29T01:14:23.553Z,16.80
2023-04-29T01:17:01.792Z,16.40
2023-04-29T01:19:47.217Z,13.40
2023-04-29T01:22:20.420Z,16.00
2023-04-29T01:24:52.229Z,17.30
2023-04-29T01:27:33.982Z,13.40
2023-04-29T01:30:19.054Z,15.30
2023-04-29T01:33:01.498Z,14.40
2023-04-29T01:35:57.821Z,16.20
2023-04-29T01:38:39.547Z,13.50
2023-04-29T01:41:16.684Z,14.50
2023-04-29T01:43:53.083Z,16.10
2023-04-29T01:46:25.145Z,15.40
2023-04-29T01:48:58.020Z,13.80
2023-04-29T01:51:30.126Z,13.00
2023-04-29T01:54:01.646Z,14.80
2023-04-29T01:56:34.012Z,12.90
2023-04-29T01:59:05.649Z,13.70
2023-04-29T02:01:37.574Z,13.80
2023-04-29T02:04:10.066Z,15.40
2023-04-29T02:06:43.095Z,15.00
2023-04-29T02:09:15.465Z,14.90
2023-04-29T02:11:47.819Z,13.90
2023-04-29T02:14:20.258Z,13.50
2023-04-29T02:16:51.712Z,12.90
2023-04-29T02:19:24.321Z,13.40
2023-04-29T02:21:55.806Z,14.20
2023-04-29T02:24:27.420Z,14.30
2023-04-29T02:26:59.386Z,13.10
2023-04-29T02:29:31.438Z,14.00
2023-04-29T02:32:03.713Z,13.70
2023-04-29T02:34:35.543Z,14.00
2023-04-29T02:37:07.123Z,12.20
2023-04-29T02:39:38.586Z,10.80
2023-04-29T02:42:11.508Z,13.70
2023-04-29T02:44:42.981Z,13.40
2023-04-29T02:47:14.674Z,12.80
2023-04-29T02:49:46.480Z,12.30
2023-04-29T02:52:19.410Z,16.10
2023-04-29T02:54:50.825Z,12.40
2023-04-29T02:57:23.495Z,12.10
2023-04-29T02:59:55.019Z,12.50
2023-04-29T03:02:26.879Z,10.90
2023-04-29T03:04:58.657Z,13.60
2023-04-29T03:07:31.331Z,16.10
2023-04-29T03:10:03.012Z,11.50
2023-04-29T03:12:35.207Z,14.30
2023-04-29T03:15:10.823Z,14.20
2023-04-29T03:17:46.700Z,13.30
2023-04-29T03:20:18.206Z,12.50
2023-04-29T03:22:49.840Z,11.70
2023-04-29T03:25:21.618Z,12.00
2023-04-29T03:27:53.250Z,12.50
2023-04-29T03:30:25.570Z,13.10
2023-04-29T03:32:57.234Z,13.80
2023-04-29T03:35:28.988Z,12.10
2023-04-29T03:38:00.455Z,15.20
2023-04-29T03:40:33.284Z,14.40
2023-04-29T03:43:04.985Z,13.60
2023-04-29T03:45:36.537Z,11.90
2023-04-29T03:48:11.962Z,11.20
2023-04-29T03:50:48.657Z,14.70
2023-04-29T03:53:24.875Z,11.00
2023-04-29T03:56:01.318Z,12.30
2023-04-29T03:58:33.073Z,13.70
2023-04-29T04:01:05.117Z,17.00
2023-04-29T04:03:36.915Z,14.70
2023-04-29T04:06:09.989Z,13.20
2023-04-29T04:08:42.598Z,11.10
2023-04-29T04:11:15.578Z,13.20
2023-04-29T04:13:47.049Z,12.00
2023-04-29T04:16:18.690Z,14.30
2023-04-29T04:18:50.879Z,15.00
2023-04-29T04:21:23.120Z,13.80
2023-04-29T04:23:56.095Z,12.40
2023-04-29T04:26:27.613Z,14.30
2023-04-29T04:28:59.569Z,12.80
2023-04-29T04:31:31.464Z,14.80
2023-04-29T04:34:03.880Z,12.60
2023-04-29T04:36:35.768Z,10.80
2023-04-29T04:39:07.669Z,14.40
2023-04-29T04:41:40.122Z,9.50
2023-04-29T04:44:12.125Z,12.20
2023-04-29T04:46:44.120Z,13.40
2023-04-29T04:49:16.060Z,10.50
2023-04-29T04:51:49.753Z,10.50
2023-04-29T04:54:21.667Z,10.60
2023-04-29T04:56:53.775Z,12.20
2023-04-29T04:59:25.776Z,11.30
2023-04-29T05:01:57.416Z,12.70
2023-04-29T05:04:29.052Z,12.60
2023-04-29T05:07:00.758Z,11.20
2023-04-29T05:09:32.678Z,11.50
2023-04-29T05:12:04.549Z,13.40
2023-04-29T05:14:36.283Z,11.20
2023-04-29T05:17:10.291Z,10.70
2023-04-29T05:19:43.214Z,10.10
2023-04-29T05:22:15.537Z,11.40
2023-04-29T05:24:48.565Z,10.20
2023-04-29T05:27:20.403Z,10.60
2023-04-29T05:29:52.162Z,9.90
2023-04-29T05:32:24.118Z,10.60
2023-04-29T05:34:55.839Z,9.80
2023-04-29T05:37:31.102Z,11.80
2023-04-29T05:40:02.672Z,10.20
2023-04-29T05:42:34.646Z,8.50
2023-04-29T05:45:06.678Z,12.90
2023-04-29T05:47:38.354Z,15.60
2023-04-29T05:50:11.757Z,9.20
2023-04-29T05:52:43.251Z,10.60
2023-04-29T05:55:15.892Z,14.30
2023-04-29T05:57:47.516Z,10.70
2023-04-29T06:00:20.290Z,8.70
2023-04-29T06:02:58.703Z,9.80
2023-04-29T06:05:31.786Z,8.00
2023-04-29T06:08:04.180Z,7.80
2023-04-29T06:10:37.369Z,7.20
2023-04-29T06:13:10.181Z,8.60
2023-04-29T06:15:41.800Z,7.90
2023-04-29T06:18:13.380Z,8.30
2023-04-29T06:20:46.051Z,8.30
2023-04-29T06:23:17.825Z,7.90
2023-04-29T06:25:51.665Z,10.40
2023-04-29T06:28:24.423Z,7.80
2023-04-29T06:30:55.968Z,9.80
2023-04-29T06:33:28.564Z,7.30
2023-04-29T06:36:00.077Z,10.20
2023-04-29T06:38:32.039Z,10.20
2023-04-29T06:41:04.822Z,8.70
2023-04-29T06:43:36.987Z,11.00
2023-04-29T06:46:08.805Z,10.80
2023-04-29T06:48:40.386Z,9.40
2023-04-29T06:51:13.435Z,7.70
2023-04-29T06:53:44.977Z,12.50
2023-04-29T06:56:18.401Z,11.00
2023-04-29T06:58:50.543Z,11.00
2023-04-29T07:01:22.515Z,9.80
2023-04-29T07:03:54.993Z,10.50
2023-04-29T07:06:27.257Z,8.00
2023-04-29T07:08:59.042Z,9.00
2023-04-29T07:11:30.606Z,11.90
2023-04-29T07:14:02.303Z,10.20
2023-04-29T07:16:33.967Z,9.10
2023-04-29T07:19:06.269Z,8.90
2023-04-29T07:21:37.880Z,11.80
2023-04-29T07:24:10.534Z,9.20
2023-04-29T07:26:43.386Z,8.20
2023-04-29T07:29:16.169Z,7.00
2023-04-29T07:31:48.153Z,7.80
2023-04-29T07:34:20.662Z,8.90
2023-04-29T07:36:53.981Z,8.80
2023-04-29T07:39:25.638Z,8.90
2023-04-29T07:41:58.111Z,8.60
2023-04-29T07:44:30.214Z,5.60
2023-04-29T07:47:03.199Z,8.50
2023-04-29T07:49:35.940Z,7.20
2023-04-29T07:52:10.593Z,8.80
2023-04-29T07:54:42.387Z,9.20
2023-04-29T07:57:14.110Z,7.00
2023-04-29T07:59:46.848Z,9.20
2023-04-29T08:02:20.198Z,8.90
2023-04-29T08:04:55.039Z,8.80
2023-04-29T08:07:28.476Z,8.70
2023-04-29T08:10:00.225Z,8.90
2023-04-29T08:12:32.222Z,8.90
2023-04-29T08:15:04.917Z,9.30
2023-04-29T08:17:37.864Z,7.70
2023-04-29T08:20:11.425Z,6.80
2023-04-29T08:22:44.814Z,9.70
2023-04-29T08:25:17.226Z,8.90
2023-04-29T08:27:49.507Z,11.30
2023-04-29T08:30:22.168Z,9.00
2023-04-29T08:32:53.994Z,9.30
2023-04-29T08:35:27.168Z,9.20
2023-04-29T08:37:59.351Z,10.80
2023-04-29T08:40:30.976Z,11.40
2023-04-29T08:43:03.302Z,12.20
2023-04-29T08:45:36.675Z,9.80
2023-04-29T08:48:11.105Z,11.20
2023-04-29T08:53:16.482Z,9.20
2023-04-29T08:55:49.433Z,10.20
2023-04-29T08:58:21.641Z,10.90
2023-04-29T09:00:54.633Z,9.60
2023-04-29T09:03:32.045Z,8.70
2023-04-29T09:06:05.598Z,8.00
2023-04-29T09:08:39.152Z,10.10
2023-04-29T09:11:12.455Z,9.50
2023-04-29T09:13:44.793Z,7.70
2023-04-29T09:16:17.915Z,7.90
2023-04-29T09:18:50.814Z,11.10
2023-04-29T09:21:25.543Z,9.10
2023-04-29T09:23:58.965Z,10.20
2023-04-29T09:26:43.630Z,13.60
2023-04-29T09:29:16.496Z,12.10
2023-04-29T09:31:48.883Z,10.80
2023-04-29T09:34:32.103Z,9.30
2023-04-29T09:37:03.794Z,9.40
2023-04-29T09:39:42.859Z,11.30
2023-04-29T09:42:15.532Z,10.10
2023-04-29T09:44:48.893Z,8.60
2023-04-29T09:47:31.224Z,8.40
2023-04-29T09:50:16.703Z,9.50
2023-04-29T09:52:48.447Z,10.40
2023-04-29T09:55:20.577Z,8.00
2023-04-29T09:57:52.541Z,8.00
2023-04-29T10:00:24.308Z,9.40
2023-04-29T10:03:00.497Z,9.50
2023-04-29T10:05:38.035Z,8.80
2023-04-29T10:08:20.356Z,7.90
2023-04-29T10:10:57.988Z,8.60
2023-04-29T10:13:30.962Z,7.80
2023-04-29T10:16:11.313Z,8.00
2023-04-29T10:18:51.065Z,7.60
2023-04-29T10:21:28.811Z,8.80
2023-04-29T10:24:04.030Z,9.90
2023-04-29T10:26:40.692Z,10.40
2023-04-29T10:29:15.987Z,12.70
2023-04-29T10:31:48.994Z,8.30
2023-04-29T10:34:22.582Z,8.50
2023-04-29T10:36:54.739Z,9.80
2023-04-29T10:39:35.668Z,9.10
2023-04-29T10:42:18.437Z,7.50
2023-04-29T10:45:22.884Z,10.30
2023-04-29T10:48:13.605Z,7.30
2023-04-29T10:51:10.584Z,7.80
2023-04-29T10:54:02.977Z,8.90
2023-04-29T10:56:42.350Z,11.20
2023-04-29T10:59:18.922Z,9.70
2023-04-29T11:01:52.459Z,7.00
2023-04-29T11:04:24.821Z,10.30
2023-04-29T11:06:58.421Z,10.30
2023-04-29T11:09:34.420Z,10.70
2023-04-29T11:12:07.164Z,10.20
2023-04-29T11:14:45.589Z,11.60
2023-04-29T11:17:20.204Z,9.50
2023-04-29T11:19:56.431Z,6.70
2023-04-29T11:22:34.050Z,7.30
2023-04-29T11:25:07.586Z,7.10
2023-04-29T11:27:41.625Z,8.50
2023-04-29T11:30:17.332Z,10.70
2023-04-29T11:32:51.004Z,9.40
2023-04-29T11:35:22.826Z,8.40
2023-04-29T11:37:55.301Z,8.00
2023-04-29T11:40:27.457Z,7.50
2023-04-29T11:42:58.989Z,8.10
2023-04-29T11:45:33.185Z,7.50
2023-04-29T11:48:07.841Z,10.30
2023-04-29T11:50:43.590Z,8.70
2023-04-29T11:53:16.454Z,12.30
2023-04-29T11:55:48.699Z,9.70
2023-04-29T11:58:22.223Z,9.30
2023-04-29T12:00:55.444Z,6.40
2023-04-29T12:03:28.011Z,8.60
2023-04-29T12:06:03.840Z,8.70
2023-04-29T12:08:36.563Z,7.40
2023-04-29T12:11:11.235Z,7.00
2023-04-29T12:13:43.456Z,6.60
2023-04-29T12:16:16.101Z,5.80
2023-04-29T12:18:47.899Z,8.20
2023-04-29T12:21:19.838Z,8.40
2023-04-29T12:23:52.905Z,6.70
2023-04-29T12:26:25.563Z,7.30
2023-04-29T12:29:01.220Z,7.60
2023-04-29T12:31:42.224Z,5.50
2023-04-29T12:34:14.541Z,5.80
2023-04-29T12:36:48.156Z,4.90
2023-04-29T12:39:20.201Z,6.50
2023-04-29T12:41:56.387Z,7.40
2023-04-29T12:44:28.564Z,6.00
2023-04-29T12:47:12.044Z,8.30
2023-04-29T12:49:45.223Z,6.10
2023-04-29T12:52:17.236Z,6.80
2023-04-29T12:54:49.359Z,8.20
2023-04-29T12:57:22.690Z,13.10
2023-04-29T12:59:54.223Z,7.80
2023-04-29T13:02:27.115Z,7.50
2023-04-29T13:05:00.223Z,7.10
2023-04-29T13:07:32.672Z,10.30
2023-04-29T13:10:06.697Z,7.50
2023-04-29T13:12:38.633Z,7.50
2023-04-29T13:15:12.604Z,7.90
2023-04-29T13:17:44.502Z,4.70
2023-04-29T13:20:17.718Z,6.00
2023-04-29T13:22:49.707Z,6.40
2023-04-29T13:25:24.358Z,5.10
2023-04-29T13:30:27.367Z,6.20
2023-04-29T13:33:04.349Z,6.30
2023-04-29T13:35:43.619Z,5.00
2023-04-29T13:38:15.656Z,9.80
2023-04-29T13:40:51.184Z,10.60
2023-04-29T13:43:32.997Z,11.40
2023-04-29T13:46:11.466Z,10.60
2023-04-29T13:49:17.336Z,7.10
2023-04-29T13:52:20.309Z,5.80
2023-04-29T13:54:56.888Z,8.50
2023-04-29T13:59:55.724Z,5.30
2023-04-29T14:02:28.245Z,8.60
2023-04-29T14:05:00.263Z,9.50
2023-04-29T14:07:32.251Z,7.30
2023-04-29T14:10:04.394Z,12.20
2023-04-29T14:12:36.299Z,6.10
2023-04-29T14:15:09.803Z,7.20
2023-04-29T14:17:41.390Z,5.70
2023-04-29T14:20:14.842Z,6.10
2023-04-29T14:22:46.641Z,8.60
2023-04-29T14:25:19.537Z,5.20
2023-04-29T14:27:51.172Z,5.80
2023-04-29T14:30:23.383Z,6.70
2023-04-29T14:32:55.380Z,5.60
2023-04-29T14:35:26.996Z,7.00
2023-04-29T14:37:58.617Z,10.90
2023-04-29T14:40:30.542Z,9.70
2023-04-29T14:43:03.186Z,9.80
2023-04-29T14:45:34.759Z,5.40
2023-04-29T14:48:06.570Z,6.80
2023-04-29T14:50:38.325Z,9.80
2023-04-29T14:53:10.590Z,12.50
2023-04-29T14:55:42.177Z,10.90
2023-04-29T14:58:13.959Z,9.50
2023-04-29T15:00:47.059Z,8.70
2023-04-29T15:03:22.426Z,6.70
2023-04-29T15:05:55.056Z,8.20
2023-04-29T15:08:26.788Z,7.80
2023-04-29T15:10:58.727Z,8.10
2023-04-29T15:13:32.004Z,10.50
2023-04-29T15:16:04.459Z,9.30
2023-04-29T15:18:36.170Z,9.30
2023-04-29T15:21:08.746Z,10.00
2023-04-29T15:23:40.922Z,9.80
2023-04-29T15:26:12.878Z,12.50
2023-04-29T15:28:46.162Z,8.70
2023-04-29T15:31:17.807Z,11.30
2023-04-29T15:33:49.834Z,10.30
2023-04-29T15:36:21.826Z,9.30
2023-04-29T15:38:53.310Z,9.50
2023-04-29T15:41:26.239Z,12.10
2023-04-29T15:43:59.904Z,12.20
2023-04-29T15:46:34.354Z,12.90
2023-04-29T15:49:06.940Z,13.30
2023-04-29T15:51:38.888Z,14.20
2023-04-29T15:54:15.012Z,9.90
2023-04-29T15:56:49.604Z,16.20
2023-04-29T16:01:57.231Z,11.80
2023-04-29T16:04:29.190Z,8.40
2023-04-29T16:07:01.747Z,8.60
2023-04-29T16:09:35.417Z,6.20
2023-04-29T16:12:08.791Z,9.20
2023-04-29T16:14:40.506Z,9.10
2023-04-29T16:17:17.785Z,12.10
2023-04-29T16:19:56.316Z,10.30
2023-04-29T16:22:34.107Z,11.00
2023-04-29T16:25:07.058Z,9.30
2023-04-29T16:27:42.003Z,10.20
2023-04-29T16:30:19.056Z,14.00
2023-04-29T16:32:50.940Z,11.90
2023-04-29T16:35:27.726Z,11.40
2023-04-29T16:38:02.663Z,11.70
2023-04-29T16:40:34.453Z,10.50
2023-04-29T16:43:06.451Z,13.00
2023-04-29T16:45:38.128Z,9.40
2023-04-29T16:48:10.480Z,10.30
2023-04-29T16:50:42.890Z,9.60
2023-04-29T16:53:14.848Z,12.00
2023-04-29T16:55:46.632Z,9.40
2023-04-29T16:58:19.881Z,8.30
2023-04-29T17:00:56.854Z,8.60
2023-04-29T17:03:30.626Z,9.30
2023-04-29T17:06:08.461Z,11.10
2023-04-29T17:08:40.791Z,7.60
2023-04-29T17:11:18.979Z,11.00
2023-04-29T17:13:52.111Z,8.80
2023-04-29T17:16:28.971Z,8.80
2023-04-29T17:19:05.453Z,12.50
2023-04-29T17:21:37.807Z,14.20
2023-04-29T17:24:11.067Z,10.10
2023-04-29T17:26:43.928Z,13.30
2023-04-29T17:29:16.842Z,12.00
2023-04-29T17:32:06.599Z,11.10
2023-04-29T17:34:39.053Z,9.70
2023-04-29T17:37:11.097Z,15.00
2023-04-29T17:39:43.205Z,10.10
2023-04-29T17:42:15.857Z,10.70
2023-04-29T17:44:48.205Z,11.30
2023-04-29T17:47:21.538Z,11.60
2023-04-29T17:49:54.887Z,12.60
2023-04-29T17:52:27.744Z,15.80
2023-04-29T17:55:02.192Z,12.00
2023-04-29T17:57:33.833Z,9.90
2023-04-29T18:00:17.065Z,12.30
2023-04-29T18:02:48.667Z,15.00
2023-04-29T18:05:21.404Z,16.10
2023-04-29T18:07:54.493Z,15.90
2023-04-29T18:10:27.166Z,18.10
2023-04-29T18:13:00.811Z,17.50
2023-04-29T18:15:32.742Z,20.20
2023-04-29T18:18:04.917Z,24.00
2023-04-29T18:20:36.650Z,16.30
2023-04-29T18:23:08.500Z,14.50
2023-04-29T18:25:41.739Z,15.90
2023-04-29T18:28:24.122Z,18.50
2023-04-29T18:30:58.350Z,19.00
2023-04-29T18:33:32.763Z,17.60
2023-04-29T18:38:37.496Z,17.00
2023-04-29T18:41:13.792Z,16.00
2023-04-29T18:43:47.165Z,14.20
2023-04-29T18:46:19.119Z,14.10
2023-04-29T18:48:52.670Z,14.20
2023-04-29T18:51:26.972Z,15.20
2023-04-29T18:54:01.276Z,17.80
2023-04-29T18:56:35.274Z,16.20
2023-04-29T18:59:09.181Z,16.40
2023-04-29T19:01:43.774Z,18.20
2023-04-29T19:04:18.441Z,17.20
2023-04-29T19:09:21.674Z,15.90
2023-04-29T19:11:54.789Z,17.10
2023-04-29T19:14:28.032Z,19.60
2023-04-29T19:17:00.358Z,21.80
2023-04-29T19:19:33.779Z,22.90
2023-04-29T19:22:07.734Z,18.20
2023-04-29T19:24:41.352Z,17.10
2023-04-29T19:27:13.998Z,20.10
2023-04-29T19:29:54.416Z,18.20
2023-04-29T19:32:30.256Z,19.00
2023-04-29T19:35:02.084Z,23.10
2023-04-29T19:37:35.718Z,25.90
2023-04-29T19:40:11.421Z,20.40
2023-04-29T19:42:49.523Z,21.50
2023-04-29T19:45:22.449Z,22.80
2023-04-29T19:47:56.860Z,22.00
2023-04-29T19:50:28.772Z,21.90
2023-04-29T19:53:00.993Z,22.70
2023-04-29T19:55:42.113Z,21.90
2023-04-29T19:58:14.740Z,21.20
2023-04-29T20:00:49.766Z,23.90
2023-04-29T20:03:23.051Z,18.60
2023-04-29T20:05:56.697Z,19.40
2023-04-29T20:08:29.718Z,18.00
2023-04-29T20:11:03.100Z,16.90
2023-04-29T20:13:36.767Z,16.50
2023-04-29T20:16:12.581Z,18.40
2023-04-29T20:18:44.959Z,16.90
2023-04-29T20:21:17.830Z,19.20
2023-04-29T20:23:52.306Z,19.40
2023-04-29T20:26:25.216Z,18.00
2023-04-29T20:28:59.751Z,16.50
2023-04-29T20:31:31.760Z,19.10
2023-04-29T20:34:03.880Z,16.00
2023-04-29T20:36:44.459Z,17.40
2023-04-29T20:39:16.275Z,15.40
2023-04-29T20:41:48.004Z,14.00
2023-04-29T20:44:20.140Z,15.00
2023-04-29T20:46:53.581Z,14.00
2023-04-29T20:49:25.829Z,16.50
2023-04-29T20:51:59.237Z,22.10
2023-04-29T20:54:31.030Z,14.50
2023-04-29T20:57:05.782Z,14.10
2023-04-29T20:59:37.710Z,14.40
2023-04-29T21:02:14.789Z,16.30
2023-04-29T21:04:46.984Z,13.80
2023-04-29T21:07:19.214Z,16.80
2023-04-29T21:09:51.781Z,14.60
2023-04-29T21:12:25.153Z,15.00
2023-04-29T21:14:57.297Z,15.40
2023-04-29T21:17:28.939Z,18.50
2023-04-29T21:20:01.266Z,20.80
2023-04-29T21:22:32.928Z,20.60
2023-04-29T21:25:05.615Z,24.40
2023-04-29T21:27:37.414Z,29.60
2023-04-29T21:30:13.306Z,27.10
2023-04-29T21:32:45.038Z,21.10
2023-04-29T21:35:17.129Z,22.60
2023-04-29T21:37:48.858Z,22.10
2023-04-29T21:40:20.647Z,21.60
2023-04-29T21:42:53.109Z,23.50
2023-04-29T21:45:25.536Z,21.80
2023-04-29T21:48:11.110Z,25.10
2023-04-29T21:50:43.663Z,26.50
2023-04-29T21:53:16.570Z,27.90
2023-04-29T21:55:48.542Z,24.70
2023-04-29T21:58:23.554Z,21.80
2023-04-29T22:01:03.226Z,22.70
2023-04-29T22:03:39.845Z,21.30
2023-04-29T22:06:13.353Z,23.60
2023-04-29T22:08:47.577Z,25.50
2023-04-29T22:11:24.316Z,20.70
2023-04-29T22:14:04.181Z,25.30
2023-04-29T22:16:41.325Z,23.50
2023-04-29T22:19:15.365Z,25.50
2023-04-29T22:21:47.642Z,23.70
2023-04-29T22:24:23.673Z,23.00
2023-04-29T22:26:55.284Z,26.90
2023-04-29T22:29:28.300Z,26.70
2023-04-29T22:32:00.629Z,20.60
2023-04-29T22:34:32.716Z,22.70
2023-04-29T22:37:06.363Z,21.40
2023-04-29T22:39:42.248Z,19.80
2023-04-29T22:42:17.406Z,22.30
2023-04-29T22:44:54.026Z,28.20
2023-04-29T22:47:30.374Z,22.40
2023-04-29T22:50:20.501Z,25.60
2023-04-29T22:52:54.266Z,25.90
2023-04-29T22:55:33.322Z,25.80
2023-04-29T22:58:28.271Z,24.30
2023-04-29T23:01:00.636Z,21.10
2023-04-29T23:03:36.026Z,20.30
2023-04-29T23:06:11.603Z,19.30
2023-04-29T23:08:59.969Z,21.40
2023-04-29T23:11:35.466Z,21.00
2023-04-29T23:14:09.937Z,19.80
2023-04-29T23:16:46.099Z,19.30
2023-04-29T23:19:18.399Z,19.80
2023-04-29T23:21:52.544Z,20.50
2023-04-29T23:24:28.505Z,17.50
2023-04-29T23:27:03.209Z,15.20
2023-04-29T23:32:10.333Z,11.90
2023-04-29T23:34:42.535Z,13.60
2023-04-29T23:37:15.638Z,13.60
2023-04-29T23:39:56.888Z,13.20
2023-04-29T23:42:35.239Z,11.30
2023-04-29T23:45:16.806Z,12.20
2023-04-29T23:48:03.863Z,12.70
2023-04-29T23:50:52.043Z,11.70
2023-04-29T23:53:28.404Z,12.20
2023-04-29T23:56:27.816Z,13.00
2023-04-29T23:59:24.820Z,11.60
